createdAt,value
2019-02-04T00:04:01.071Z,12.96
2019-02-04T00:06:29.571Z,12.97
2019-02-04T00:08:58.965Z,13.03
2019-02-04T00:11:28.370Z,13.00
2019-02-04T00:13:57.751Z,13.01
2019-02-04T00:16:47.050Z,13.02
2019-02-04T00:19:16.516Z,13.05
2019-02-04T00:21:45.952Z,13.05
2019-02-04T00:24:15.343Z,13.05
2019-02-04T00:26:51.339Z,13.00
2019-02-04T00:29:14.715Z,12.97
2019-02-04T00:31:43.186Z,12.92
2019-02-04T00:34:11.790Z,12.91
2019-02-04T00:36:41.187Z,12.92
2019-02-04T00:39:10.674Z,12.94
2019-02-04T00:41:59.955Z,12.96
2019-02-04T00:44:29.345Z,12.96
2019-02-04T00:46:58.728Z,12.92
2019-02-04T00:49:28.115Z,12.94
2019-02-04T00:51:57.002Z,12.89
2019-02-04T00:54:25.485Z,12.84
2019-02-04T00:56:54.926Z,12.87
2019-02-04T00:59:23.434Z,12.85
2019-02-04T01:01:52.825Z,12.84
2019-02-04T01:04:22.327Z,12.79
2019-02-04T01:07:11.620Z,12.85
2019-02-04T01:09:40.997Z,12.79
2019-02-04T01:12:10.391Z,12.79
2019-02-04T01:14:39.769Z,12.78
2019-02-04T01:17:29.031Z,12.76
2019-02-04T01:19:57.660Z,12.79
2019-02-04T01:22:26.124Z,12.74
2019-02-04T01:24:55.575Z,12.76
2019-02-04T01:27:24.946Z,12.76
2019-02-04T01:29:54.293Z,12.82
2019-02-04T01:32:23.666Z,12.85
2019-02-04T01:34:53.004Z,12.87
2019-02-04T01:37:22.368Z,12.85
2019-02-04T01:39:51.774Z,12.87
2019-02-04T01:42:20.551Z,12.91
2019-02-04T01:44:49.074Z,12.91
2019-02-04T01:47:18.415Z,12.91
2019-02-04T01:49:59.577Z,12.88
2019-02-04T01:52:40.227Z,12.85
2019-02-04T01:55:09.104Z,12.81
2019-02-04T01:57:37.636Z,12.77
2019-02-04T02:00:28.658Z,12.78
2019-02-04T02:02:58.296Z,12.78
2019-02-04T02:05:27.755Z,12.78
2019-02-04T02:07:57.195Z,12.78
2019-02-04T02:13:28.648Z,12.83
2019-02-04T02:15:58.003Z,12.83
2019-02-04T02:18:27.340Z,12.80
2019-02-04T02:20:56.675Z,12.80
2019-02-04T02:23:26.020Z,12.77
2019-02-04T02:25:55.360Z,12.77
2019-02-04T02:28:24.710Z,12.81
2019-02-04T02:30:53.241Z,12.87
2019-02-04T02:33:23.072Z,12.79
2019-02-04T02:35:51.697Z,12.76
2019-02-04T02:38:20.168Z,12.74
2019-02-04T02:40:49.506Z,12.72
2019-02-04T02:43:18.949Z,12.69
2019-02-04T02:45:48.280Z,12.60
2019-02-04T02:48:17.611Z,12.49
2019-02-04T02:50:46.950Z,12.40
2019-02-04T02:53:16.290Z,12.37
2019-02-04T02:55:45.630Z,12.28
2019-02-04T02:58:14.165Z,12.24
2019-02-04T03:00:42.590Z,12.07
2019-02-04T03:03:11.923Z,12.06
2019-02-04T03:05:41.261Z,12.09
2019-02-04T03:08:10.600Z,11.89
2019-02-04T03:10:39.952Z,11.75
2019-02-04T03:13:08.464Z,11.84
2019-02-04T03:15:37.898Z,11.93
2019-02-04T03:18:07.237Z,11.78
2019-02-04T03:20:36.577Z,11.79
2019-02-04T03:23:05.420Z,11.84
2019-02-04T03:25:33.858Z,11.79
2019-02-04T03:28:03.294Z,11.78
2019-02-04T03:33:35.090Z,11.65
2019-02-04T03:39:07.701Z,11.58
2019-02-04T03:41:36.146Z,11.57
2019-02-04T03:47:00.024Z,11.49
2019-02-04T03:49:29.555Z,11.53
2019-02-04T03:51:59.002Z,11.68
2019-02-04T03:54:27.427Z,11.74
2019-02-04T03:56:56.006Z,11.77
2019-02-04T03:59:25.331Z,11.76
2019-02-04T04:01:54.675Z,11.72
2019-02-04T04:04:24.017Z,11.33
2019-02-04T04:06:53.368Z,11.51
2019-02-04T04:09:22.710Z,11.52
2019-02-04T04:11:52.058Z,11.44
2019-02-04T04:14:21.400Z,11.51
2019-02-04T04:17:10.684Z,11.51
2019-02-04T04:19:39.268Z,11.22
2019-02-04T04:22:07.909Z,11.36
2019-02-04T04:24:37.244Z,11.41
2019-02-04T04:27:06.595Z,11.23
2019-02-04T04:29:35.933Z,11.38
2019-02-04T04:32:05.260Z,11.40
2019-02-04T04:34:34.594Z,11.41
2019-02-04T04:37:03.957Z,11.31
2019-02-04T04:39:32.391Z,11.13
2019-02-04T04:42:00.819Z,11.24
2019-02-04T04:44:30.150Z,11.07
2019-02-04T04:46:58.573Z,11.04
2019-02-04T04:49:27.921Z,11.13
2019-02-04T04:51:57.255Z,11.04
2019-02-04T04:54:26.575Z,11.08
2019-02-04T04:56:56.002Z,11.03
2019-02-04T04:59:25.458Z,10.88
2019-02-04T05:01:54.778Z,10.87
2019-02-04T05:04:24.102Z,10.96
2019-02-04T05:06:53.439Z,10.87
2019-02-04T05:09:21.985Z,10.93
2019-02-04T05:11:50.733Z,11.02
2019-02-04T05:14:20.174Z,11.04
2019-02-04T05:16:49.542Z,10.72
2019-02-04T05:19:18.892Z,10.60
2019-02-04T05:21:48.243Z,10.83
2019-02-04T05:24:17.583Z,10.81
2019-02-04T05:27:06.803Z,10.88
2019-02-04T05:29:36.139Z,10.96
2019-02-04T05:32:05.473Z,10.89
2019-02-04T05:34:33.907Z,10.71
2019-02-04T05:37:23.147Z,10.72
2019-02-04T05:39:52.521Z,10.71
2019-02-04T05:42:21.857Z,10.80
2019-02-04T05:44:51.244Z,10.96
2019-02-04T05:47:20.955Z,10.94
2019-02-04T05:49:49.654Z,10.76
2019-02-04T05:52:18.076Z,10.84
2019-02-04T05:57:48.815Z,10.98
2019-02-04T06:00:39.533Z,10.97
2019-02-04T06:03:08.995Z,10.79
2019-02-04T06:08:26.355Z,10.54
2019-02-04T06:10:54.883Z,10.58
2019-02-04T06:13:24.240Z,10.45
2019-02-04T06:15:53.583Z,10.49
2019-02-04T06:18:23.192Z,10.54
2019-02-04T06:20:52.614Z,10.65
2019-02-04T06:23:21.947Z,10.69
2019-02-04T06:25:51.288Z,10.60
2019-02-04T06:28:20.627Z,10.59
2019-02-04T06:30:49.994Z,10.60
2019-02-04T06:33:19.335Z,10.68
2019-02-04T06:35:47.876Z,10.83
2019-02-04T06:38:17.223Z,10.74
2019-02-04T06:40:46.579Z,10.80
2019-02-04T06:43:15.931Z,10.80
2019-02-04T06:45:46.072Z,10.70
2019-02-04T06:48:34.499Z,10.60
2019-02-04T06:51:03.839Z,10.67
2019-02-04T06:53:32.378Z,10.68
2019-02-04T06:56:01.735Z,10.67
2019-02-04T06:58:30.268Z,10.73
2019-02-04T07:00:59.629Z,10.65
2019-02-04T07:03:28.972Z,10.83
2019-02-04T07:05:58.315Z,10.96
2019-02-04T07:08:27.672Z,11.03
2019-02-04T07:10:57.104Z,10.99
2019-02-04T07:13:26.468Z,11.09
2019-02-04T07:15:55.959Z,11.09
2019-02-04T07:18:25.307Z,11.18
2019-02-04T07:20:54.775Z,11.23
2019-02-04T07:23:24.134Z,11.23
2019-02-04T07:25:53.475Z,11.19
2019-02-04T07:28:22.021Z,11.30
2019-02-04T07:30:50.655Z,11.37
2019-02-04T07:33:20.012Z,11.23
2019-02-04T07:35:49.338Z,11.28
2019-02-04T07:38:18.683Z,11.26
2019-02-04T07:40:48.191Z,11.28
2019-02-04T07:43:17.636Z,11.45
2019-02-04T07:45:46.986Z,11.51
2019-02-04T07:48:15.429Z,11.51
2019-02-04T07:50:43.974Z,11.53
2019-02-04T07:53:12.505Z,11.56
2019-02-04T07:55:41.851Z,11.57
2019-02-04T07:58:11.407Z,11.74
2019-02-04T08:00:52.645Z,11.76
2019-02-04T08:03:21.079Z,11.82
2019-02-04T08:05:50.425Z,11.86
2019-02-04T08:08:19.763Z,11.91
2019-02-04T08:10:49.091Z,11.99
2019-02-04T08:13:18.435Z,12.08
2019-02-04T08:15:47.780Z,12.21
2019-02-04T08:18:17.123Z,12.36
2019-02-04T08:20:45.600Z,12.48
2019-02-04T08:23:14.063Z,12.54
2019-02-04T08:25:43.413Z,12.69
2019-02-04T08:28:12.760Z,12.68
2019-02-04T08:30:42.097Z,12.57
2019-02-04T08:33:11.434Z,12.62
2019-02-04T08:35:40.799Z,12.70
2019-02-04T08:38:10.207Z,12.69
2019-02-04T08:40:39.770Z,12.84
2019-02-04T08:43:09.159Z,12.69
2019-02-04T08:45:37.677Z,12.78
2019-02-04T08:48:07.030Z,12.87
2019-02-04T08:50:36.375Z,12.80
2019-02-04T08:53:05.705Z,12.74
2019-02-04T08:55:54.980Z,12.73
2019-02-04T08:58:24.309Z,12.87
2019-02-04T09:00:53.635Z,12.95
2019-02-04T09:03:22.975Z,13.13
2019-02-04T09:08:54.771Z,13.43
2019-02-04T09:11:24.134Z,13.48
2019-02-04T09:13:53.488Z,13.40
2019-02-04T09:16:23.035Z,13.44
2019-02-04T09:18:52.384Z,13.48
2019-02-04T09:21:21.805Z,13.61
2019-02-04T09:23:50.249Z,13.68
2019-02-04T09:26:18.697Z,13.60
2019-02-04T09:28:48.036Z,13.62
2019-02-04T09:31:37.274Z,13.74
2019-02-04T09:34:06.909Z,13.89
2019-02-04T09:36:36.342Z,13.94
2019-02-04T09:41:50.627Z,13.95
2019-02-04T09:44:19.085Z,13.94
2019-02-04T09:46:48.435Z,13.94
2019-02-04T09:49:17.808Z,14.10
2019-02-04T09:51:47.149Z,14.18
2019-02-04T09:54:36.392Z,14.17
2019-02-04T09:57:05.734Z,14.26
2019-02-04T09:59:37.831Z,14.22
2019-02-04T10:02:07.288Z,14.14
2019-02-04T10:04:56.564Z,14.16
2019-02-04T10:07:25.917Z,14.11
2019-02-04T10:09:55.301Z,14.15
2019-02-04T10:12:23.806Z,14.14
2019-02-04T10:14:52.691Z,14.23
2019-02-04T10:17:22.098Z,14.20
2019-02-04T10:19:51.515Z,14.27
2019-02-04T10:22:20.848Z,14.33
2019-02-04T10:24:50.262Z,14.35
2019-02-04T10:27:19.776Z,14.35
2019-02-04T10:30:14.069Z,14.37
2019-02-04T10:32:44.372Z,14.37
2019-02-04T10:35:31.779Z,14.29
2019-02-04T10:38:01.242Z,14.49
2019-02-04T10:40:30.836Z,14.46
2019-02-04T10:43:00.340Z,14.47
2019-02-04T10:45:29.806Z,14.58
2019-02-04T10:47:58.724Z,14.66
2019-02-04T10:50:47.833Z,14.66
2019-02-04T10:53:17.151Z,14.73
2019-02-04T10:55:45.787Z,14.96
2019-02-04T11:01:18.739Z,14.90
2019-02-04T11:03:48.156Z,14.86
2019-02-04T11:06:16.694Z,14.98
2019-02-04T11:08:45.138Z,15.15
2019-02-04T11:11:14.532Z,15.11
2019-02-04T11:13:43.867Z,15.19
2019-02-04T11:16:13.194Z,15.45
2019-02-04T11:18:42.543Z,15.32
2019-02-04T11:21:12.038Z,15.36
2019-02-04T11:24:01.259Z,15.34
2019-02-04T11:26:30.693Z,15.47
2019-02-04T11:29:00.026Z,15.47
2019-02-04T11:31:29.414Z,15.52
2019-02-04T11:33:58.127Z,15.56
2019-02-04T11:36:26.647Z,15.54
2019-02-04T11:38:56.023Z,15.49
2019-02-04T11:41:25.429Z,15.58
2019-02-04T11:43:54.787Z,15.62
2019-02-04T11:46:24.204Z,15.73
2019-02-04T11:49:13.390Z,15.69
2019-02-04T11:51:42.908Z,15.72
2019-02-04T11:54:12.238Z,15.72
2019-02-04T11:56:41.577Z,15.79
2019-02-04T11:59:10.132Z,15.81
2019-02-04T12:01:38.651Z,15.92
2019-02-04T12:04:07.989Z,15.86
2019-02-04T12:06:37.435Z,15.94
2019-02-04T12:12:10.450Z,16.30
2019-02-04T12:14:38.868Z,16.28
2019-02-04T12:17:08.214Z,16.11
2019-02-04T12:19:37.617Z,16.03
2019-02-04T12:22:07.068Z,16.05
2019-02-04T12:24:36.587Z,16.05
2019-02-04T12:27:05.999Z,16.06
2019-02-04T12:29:35.430Z,16.02
2019-02-04T12:32:04.787Z,15.99
2019-02-04T12:34:34.127Z,16.05
2019-02-04T12:37:15.177Z,16.15
2019-02-04T12:39:43.698Z,16.30
2019-02-04T12:45:33.957Z,16.28
2019-02-04T12:48:02.914Z,16.28
2019-02-04T12:50:31.677Z,16.21
2019-02-04T12:53:01.125Z,16.33
2019-02-04T12:58:33.696Z,16.45
2019-02-04T13:03:46.193Z,16.42
2019-02-04T13:06:15.151Z,16.40
2019-02-04T13:11:46.142Z,16.48
2019-02-04T13:14:14.787Z,16.35
2019-02-04T13:19:45.890Z,16.41
2019-02-04T13:22:15.229Z,16.57
2019-02-04T13:24:44.577Z,16.69
2019-02-04T13:27:14.476Z,16.61
2019-02-04T13:29:43.890Z,16.58
2019-02-04T13:32:13.437Z,16.57
2019-02-04T13:34:42.775Z,16.58
2019-02-04T13:37:12.141Z,16.61
2019-02-04T13:39:41.471Z,16.62
2019-02-04T13:42:11.130Z,16.59
2019-02-04T13:44:40.697Z,16.51
2019-02-04T13:47:10.056Z,16.62
2019-02-04T13:49:39.378Z,16.63
2019-02-04T13:55:12.001Z,16.49
2019-02-04T14:00:43.580Z,16.50
2019-02-04T14:03:13.029Z,16.48
2019-02-04T14:05:42.373Z,16.51
2019-02-04T14:08:11.431Z,16.52
2019-02-04T14:10:42.321Z,16.47
2019-02-04T14:13:11.245Z,16.55
2019-02-04T14:15:41.295Z,16.44
2019-02-04T14:18:11.056Z,16.40
2019-02-04T14:20:40.389Z,16.32
2019-02-04T14:26:11.739Z,16.25
2019-02-04T14:28:41.134Z,16.21
2019-02-04T14:34:12.275Z,16.19
2019-02-04T14:36:40.903Z,16.09
2019-02-04T14:42:16.453Z,16.04
2019-02-04T14:45:24.370Z,15.98
2019-02-04T14:48:23.585Z,15.95
2019-02-04T14:51:31.705Z,16.00
2019-02-04T14:54:39.108Z,15.90
2019-02-04T14:57:21.345Z,15.88
2019-02-04T14:59:59.037Z,15.80
2019-02-04T15:03:19.176Z,15.74
2019-02-04T15:06:22.996Z,15.65
2019-02-04T15:09:30.567Z,15.59
2019-02-04T15:12:38.064Z,15.60
2019-02-04T15:15:45.810Z,15.57
2019-02-04T15:18:48.006Z,15.55
2019-02-04T15:21:44.025Z,15.44
2019-02-04T15:24:51.783Z,15.42
2019-02-04T15:27:59.847Z,15.41
2019-02-04T15:30:51.904Z,15.31
2019-02-04T15:34:00.201Z,15.25
2019-02-04T15:37:07.771Z,15.17
2019-02-04T15:40:08.759Z,15.16
2019-02-04T15:43:16.823Z,15.10
2019-02-04T15:46:24.286Z,15.08
2019-02-04T15:49:31.650Z,14.98
2019-02-04T15:52:00.732Z,14.99
2019-02-04T15:54:30.073Z,14.85
2019-02-04T15:56:59.399Z,14.88
2019-02-04T15:59:28.729Z,14.84
2019-02-04T16:01:58.405Z,14.83
2019-02-04T16:04:32.278Z,14.78
2019-02-04T16:07:01.990Z,14.81
2019-02-04T16:09:30.559Z,14.67
2019-02-04T16:11:59.897Z,14.65
2019-02-04T16:14:29.232Z,14.66
2019-02-04T16:16:58.572Z,14.59
2019-02-04T16:19:27.393Z,14.66
2019-02-04T16:21:56.180Z,14.72
2019-02-04T16:24:25.622Z,14.66
2019-02-04T16:26:54.963Z,14.74
2019-02-04T16:29:24.297Z,14.59
2019-02-04T16:31:53.612Z,14.60
2019-02-04T16:34:24.139Z,14.52
2019-02-04T16:37:12.534Z,14.51
2019-02-04T16:39:41.903Z,14.40
2019-02-04T16:42:10.634Z,14.41
2019-02-04T16:44:40.088Z,14.45
2019-02-04T16:47:09.609Z,14.39
2019-02-04T16:49:39.068Z,14.43
2019-02-04T16:52:08.542Z,14.29
2019-02-04T16:54:37.858Z,14.26
2019-02-04T16:57:07.657Z,14.20
2019-02-04T16:59:36.987Z,14.11
2019-02-04T17:02:06.407Z,14.14
2019-02-04T17:04:35.738Z,14.04
2019-02-04T17:07:05.206Z,13.96
2019-02-04T17:09:34.638Z,13.89
2019-02-04T17:12:04.089Z,13.88
2019-02-04T17:14:32.690Z,13.78
2019-02-04T17:17:02.031Z,13.88
2019-02-04T17:19:31.375Z,13.85
2019-02-04T17:22:00.711Z,13.83
2019-02-04T17:24:30.139Z,13.72
2019-02-04T17:26:59.496Z,13.71
2019-02-04T17:29:28.832Z,13.94
2019-02-04T17:32:00.409Z,13.61
2019-02-04T17:34:47.428Z,13.71
2019-02-04T17:37:36.750Z,13.63
2019-02-04T17:40:09.405Z,13.68
2019-02-04T17:42:38.839Z,13.88
2019-02-04T17:48:11.354Z,13.42
2019-02-04T17:50:40.702Z,13.32
2019-02-04T17:53:10.079Z,13.36
2019-02-04T17:58:42.237Z,13.40
2019-02-04T18:01:11.589Z,13.29
2019-02-04T18:04:00.819Z,13.24
2019-02-04T18:06:31.675Z,13.26
2019-02-04T18:09:19.409Z,13.24
2019-02-04T18:11:48.748Z,13.06
2019-02-04T18:17:01.352Z,13.03
2019-02-04T18:19:30.796Z,13.04
2019-02-04T18:22:00.367Z,13.11
2019-02-04T18:24:29.755Z,12.92
2019-02-04T18:27:18.991Z,12.82
2019-02-04T18:29:48.677Z,13.11
2019-02-04T18:32:37.966Z,13.10
2019-02-04T18:35:08.380Z,13.18
2019-02-04T18:37:37.853Z,13.30
2019-02-04T18:40:09.273Z,13.28
2019-02-04T18:42:38.998Z,13.25
2019-02-04T18:45:29.914Z,13.02
2019-02-04T18:47:59.459Z,12.96
2019-02-04T18:50:29.405Z,13.07
2019-02-04T18:52:57.931Z,13.02
2019-02-04T18:55:29.593Z,12.94
2019-02-04T18:57:58.227Z,13.21
2019-02-04T19:03:29.953Z,13.10
2019-02-04T19:05:58.578Z,12.86
2019-02-04T19:08:27.935Z,12.82
2019-02-04T19:10:57.258Z,13.00
2019-02-04T19:13:35.761Z,12.86
2019-02-04T19:16:16.019Z,12.97
2019-02-04T19:18:45.349Z,12.61
2019-02-04T19:21:14.697Z,12.60
2019-02-04T19:24:09.714Z,12.58
2019-02-04T19:26:54.088Z,12.83
2019-02-04T19:29:42.685Z,12.80
2019-02-04T19:32:12.134Z,12.98
2019-02-04T19:34:40.676Z,12.80
2019-02-04T19:37:10.039Z,12.65
2019-02-04T19:39:38.691Z,12.61
2019-02-04T19:42:07.436Z,12.54
2019-02-04T19:44:36.790Z,12.51
2019-02-04T19:47:06.446Z,12.58
2019-02-04T19:49:35.835Z,12.51
2019-02-04T19:52:04.702Z,12.55
2019-02-04T19:54:33.145Z,12.67
2019-02-04T19:57:02.878Z,12.79
2019-02-04T19:59:31.619Z,12.60
2019-02-04T20:02:12.708Z,12.67
2019-02-04T20:04:41.251Z,12.82
2019-02-04T20:07:10.719Z,12.51
2019-02-04T20:12:42.384Z,12.46
2019-02-04T20:15:15.920Z,12.19
2019-02-04T20:17:44.761Z,12.37
2019-02-04T20:23:15.931Z,12.50
2019-02-04T20:26:05.461Z,12.36
2019-02-04T20:28:34.011Z,12.41
2019-02-04T20:33:46.810Z,12.20
2019-02-04T20:39:18.084Z,11.97
2019-02-04T20:41:47.439Z,11.94
2019-02-04T20:44:19.230Z,12.06
2019-02-04T20:46:47.589Z,12.10
2019-02-04T20:49:16.885Z,12.09
2019-02-04T20:51:45.530Z,11.75
2019-02-04T20:54:19.766Z,11.61
2019-02-04T20:57:03.295Z,11.67
2019-02-04T20:59:32.642Z,11.59
2019-02-04T21:02:02.332Z,11.81
2019-02-04T21:04:30.935Z,11.55
2019-02-04T21:07:00.298Z,11.84
2019-02-04T21:09:49.524Z,11.97
2019-02-04T21:12:18.159Z,12.07
2019-02-04T21:14:47.561Z,11.94
2019-02-04T21:17:17.348Z,11.74
2019-02-04T21:19:46.382Z,11.44
2019-02-04T21:22:15.771Z,11.48
2019-02-04T21:24:56.040Z,11.81
2019-02-04T21:27:34.394Z,11.79
2019-02-04T21:36:08.672Z,11.78
2019-02-04T21:38:38.014Z,11.81
2019-02-04T21:41:07.344Z,11.80
2019-02-04T21:43:36.689Z,11.75
2019-02-04T21:46:06.024Z,11.76
2019-02-04T21:48:35.568Z,11.86
2019-02-04T21:51:05.020Z,11.55
2019-02-04T21:53:34.360Z,11.57
2019-02-04T21:56:03.903Z,11.53
2019-02-04T21:58:33.235Z,11.59
2019-02-04T22:01:03.509Z,11.68
2019-02-04T22:03:32.136Z,11.65
2019-02-04T22:06:00.779Z,11.27
2019-02-04T22:08:30.163Z,11.21
2019-02-04T22:11:19.525Z,11.24
2019-02-04T22:13:48.067Z,11.31
2019-02-04T22:16:17.401Z,11.19
2019-02-04T22:18:46.734Z,11.22
2019-02-04T22:21:16.094Z,11.01
2019-02-04T22:23:45.426Z,11.20
2019-02-04T22:26:14.767Z,11.05
2019-02-04T22:28:43.286Z,11.23
2019-02-04T22:31:12.619Z,11.12
2019-02-04T22:33:41.953Z,11.14
2019-02-04T22:36:11.287Z,10.89
2019-02-04T22:38:40.625Z,10.99
2019-02-04T22:41:09.968Z,11.11
2019-02-04T22:43:39.314Z,11.01
2019-02-04T22:46:08.860Z,11.20
2019-02-04T22:48:38.187Z,10.78
2019-02-04T22:51:07.526Z,11.00
2019-02-04T22:53:36.842Z,11.09
2019-02-04T22:56:06.200Z,10.77
2019-02-04T22:58:34.825Z,10.92
2019-02-04T23:01:29.484Z,11.19
2019-02-04T23:03:58.473Z,11.24
2019-02-04T23:06:27.807Z,11.25
2019-02-04T23:08:57.142Z,11.06
2019-02-04T23:11:25.569Z,11.13
2019-02-04T23:13:54.909Z,11.03
2019-02-04T23:16:23.673Z,10.92
2019-02-04T23:18:53.020Z,11.07
2019-02-04T23:21:22.347Z,11.10
2019-02-04T23:24:11.648Z,10.99
2019-02-04T23:26:40.202Z,11.17
2019-02-04T23:29:09.547Z,11.22
2019-02-04T23:31:38.889Z,11.08
2019-02-04T23:34:08.236Z,11.02
2019-02-04T23:36:48.220Z,11.12
2019-02-04T23:39:16.777Z,11.10
2019-02-04T23:41:45.420Z,10.91
2019-02-04T23:44:13.966Z,10.89
2019-02-04T23:46:43.304Z,10.69
2019-02-04T23:49:12.777Z,10.99
2019-02-04T23:51:41.185Z,11.04
2019-02-04T23:54:10.635Z,11.05
2019-02-04T23:56:39.167Z,11.19
2019-02-04T23:59:07.616Z,11.19
